Aeroporto :
LOGIN :

Iscrizione | Disclaimer

   EN    FR    IT 

 










Sommario :    VFR   VFR Marginale   IFR   IFR Intensivo   IFR Molto Intensivo
Visibilità : 
Base nubi : 
>= 8 km
>= 3000ft
5 / 8 km
1000 / 3000 ft
1500m / 5 km
500 / 1000 ft
800 / 1500m
200 / 500 ft
< 800m
< 200 ft
Simboli :   Temporali  Nebbia  Neve Forte  Precipitazioni Forti  Vento > 20 kt
SIGMETs :   Varie  Temporali  Ghiacco  Turbolenza  Onda orograficha  Ceneri Vulcaniche






- Altitudine del aeroporto : 776 ft
- Codice IATA : RMS


ETAR - Ramstein Air Base

ULTIMO METAR :
  • 071900Z AUTO 22005KT 9999 FEW016 OVC043 08/08 A3006 RMK AO2 SLP187 $

METARs OBSOLETI :
  • 071856Z AUTO 22004KT 9999 OVC043 08/08 A3006 RMK AO2 SLP187 T00800080 $
  • 071756Z AUTO 22005KT 9999 OVC048 08/08 A3005 RMK AO2 SLP184 60003 T00820082 10087 20077 52009 $
  • 071656Z AUTO 23005KT 9999 FEW022 OVC050 08/08 A3005 RMK AO2 SLP184 T00800080 $

TAF TAF ETAR
Valido dal 07 a 18 ore il 09 a 00 ore UTC


071800Z 0718/0824 23009KT 9999 SCT015 OVC040 QNH3001INS
BECMG 0723/0724 24010G20KT 9999 BKN015 OVC040 QNH3004INS
BECMG 0802/0803 22015G25KT 9999 OVC010 520004 QNH2998INS
BECMG 0807/0808 22020G30KT 8000 -SHRA OVC015 520004 QNH2981INS
TEMPO 0810/0814 22025G35KT 530004
BECMG 0815/0816 25015G25KT 9000 -SHRA BKN015 520004 QNH2970INS
BECMG 0818/0819 25012G20KT 9999 NSW BKN020 QNH2972INS TX08/0818Z TN06/0805Z



MetMap, La meteo Aeronautica in un colpo d'occhio ! - Copyright ORBIFLY Dicembre 2007 - Disclaimer

ORBIFLY MET'MAP TEAM :

Programmazione e sviluppo : Alexandra Zaïnal
Concezione : Baudouin d'Aumeries
Aiuto per la programmazione : Marc-Olivier Méhu
Supporto tecnico e logistico : Manuel Goepfert
Aiuto per la traduzione : Arnaldo La Scala

Contatto : metmap@orbifly.com




FONTI E CREDITI :

   NOAA